sensor_id;sensor_type;location;lat;lon;timestamp;P1;durP1;ratioP1;P2;durP2;ratioP2
70312;SDS011;57723;51.698;5.344;2023-03-11T00:02:06;4.03;;;0.60;;
70312;SDS011;57723;51.698;5.344;2023-03-11T00:04:31;2.28;;;0.80;;
70312;SDS011;57723;51.698;5.344;2023-03-11T00:06:57;1.30;;;0.70;;
70312;SDS011;57723;51.698;5.344;2023-03-11T00:09:22;1.73;;;0.80;;
70312;SDS011;57723;51.698;5.344;2023-03-11T00:11:48;2.03;;;1.00;;
70312;SDS011;57723;51.698;5.344;2023-03-11T00:14:13;3.43;;;0.80;;
70312;SDS011;57723;51.698;5.344;2023-03-11T00:16:39;2.20;;;0.90;;
70312;SDS011;57723;51.698;5.344;2023-03-11T00:19:04;4.50;;;0.90;;
70312;SDS011;57723;51.698;5.344;2023-03-11T00:21:29;1.23;;;0.80;;
70312;SDS011;57723;51.698;5.344;2023-03-11T00:23:54;3.30;;;0.80;;
70312;SDS011;57723;51.698;5.344;2023-03-11T00:26:22;3.50;;;0.88;;
70312;SDS011;57723;51.698;5.344;2023-03-11T00:28:47;2.27;;;0.70;;
70312;SDS011;57723;51.698;5.344;2023-03-11T00:31:13;5.60;;;1.23;;
70312;SDS011;57723;51.698;5.344;2023-03-11T00:33:38;2.47;;;0.80;;
70312;SDS011;57723;51.698;5.344;2023-03-11T00:36:04;2.47;;;0.87;;
70312;SDS011;57723;51.698;5.344;2023-03-11T00:38:33;1.50;;;0.80;;
70312;SDS011;57723;51.698;5.344;2023-03-11T00:40:59;1.40;;;0.63;;
70312;SDS011;57723;51.698;5.344;2023-03-11T00:43:26;4.07;;;0.80;;
70312;SDS011;57723;51.698;5.344;2023-03-11T00:45:51;2.63;;;0.80;;
70312;SDS011;57723;51.698;5.344;2023-03-11T00:48:17;2.53;;;0.70;;
70312;SDS011;57723;51.698;5.344;2023-03-11T00:50:42;1.35;;;0.70;;
70312;SDS011;57723;51.698;5.344;2023-03-11T00:53:08;2.28;;;0.80;;
70312;SDS011;57723;51.698;5.344;2023-03-11T00:55:34;3.35;;;0.90;;
70312;SDS011;57723;51.698;5.344;2023-03-11T00:58:00;1.92;;;0.60;;
70312;SDS011;57723;51.698;5.344;2023-03-11T01:00:26;1.35;;;0.63;;
70312;SDS011;57723;51.698;5.344;2023-03-11T01:02:52;1.25;;;0.60;;
70312;SDS011;57723;51.698;5.344;2023-03-11T01:05:22;1.15;;;0.70;;
70312;SDS011;57723;51.698;5.344;2023-03-11T01:08:04;1.67;;;0.57;;
70312;SDS011;57723;51.698;5.344;2023-03-11T01:10:30;1.52;;;0.63;;
70312;SDS011;57723;51.698;5.344;2023-03-11T01:12:56;2.25;;;0.60;;
70312;SDS011;57723;51.698;5.344;2023-03-11T01:15:28;4.47;;;1.00;;
70312;SDS011;57723;51.698;5.344;2023-03-11T01:17:54;2.63;;;0.90;;
70312;SDS011;57723;51.698;5.344;2023-03-11T01:20:20;2.17;;;0.60;;
70312;SDS011;57723;51.698;5.344;2023-03-11T01:22:45;2.63;;;0.63;;
70312;SDS011;57723;51.698;5.344;2023-03-11T01:25:14;1.67;;;0.80;;
70312;SDS011;57723;51.698;5.344;2023-03-11T01:27:40;1.63;;;0.60;;
70312;SDS011;57723;51.698;5.344;2023-03-11T01:30:05;3.83;;;0.80;;
70312;SDS011;57723;51.698;5.344;2023-03-11T01:32:31;0.65;;;0.55;;
70312;SDS011;57723;51.698;5.344;2023-03-11T01:34:57;2.50;;;0.60;;
70312;SDS011;57723;51.698;5.344;2023-03-11T01:37:22;0.93;;;0.60;;
70312;SDS011;57723;51.698;5.344;2023-03-11T01:39:47;1.70;;;0.70;;
70312;SDS011;57723;51.698;5.344;2023-03-11T01:42:12;1.17;;;0.70;;
70312;SDS011;57723;51.698;5.344;2023-03-11T01:44:38;2.10;;;0.60;;
70312;SDS011;57723;51.698;5.344;2023-03-11T01:49:28;1.93;;;0.67;;
70312;SDS011;57723;51.698;5.344;2023-03-11T01:51:58;0.93;;;0.68;;
70312;SDS011;57723;51.698;5.344;2023-03-11T01:54:25;1.05;;;0.60;;
70312;SDS011;57723;51.698;5.344;2023-03-11T01:56:51;1.35;;;0.60;;
70312;SDS011;57723;51.698;5.344;2023-03-11T01:59:18;0.98;;;0.55;;
70312;SDS011;57723;51.698;5.344;2023-03-11T02:04:29;1.73;;;0.60;;
70312;SDS011;57723;51.698;5.344;2023-03-11T02:06:57;0.95;;;0.50;;
70312;SDS011;57723;51.698;5.344;2023-03-11T02:09:22;1.10;;;0.60;;
70312;SDS011;57723;51.698;5.344;2023-03-11T02:11:48;1.50;;;0.60;;
70312;SDS011;57723;51.698;5.344;2023-03-11T02:14:13;1.50;;;0.50;;
70312;SDS011;57723;51.698;5.344;2023-03-11T02:16:39;1.63;;;0.50;;
70312;SDS011;57723;51.698;5.344;2023-03-11T02:19:09;2.27;;;0.80;;
70312;SDS011;57723;51.698;5.344;2023-03-11T02:21:35;2.55;;;0.40;;
70312;SDS011;57723;51.698;5.344;2023-03-11T02:27:29;1.23;;;0.47;;
70312;SDS011;57723;51.698;5.344;2023-03-11T02:29:24;0.77;;;0.40;;
70312;SDS011;57723;51.698;5.344;2023-03-11T02:31:50;1.70;;;0.60;;
70312;SDS011;57723;51.698;5.344;2023-03-11T02:34:20;1.63;;;0.73;;
70312;SDS011;57723;51.698;5.344;2023-03-11T02:36:48;3.65;;;0.57;;
70312;SDS011;57723;51.698;5.344;2023-03-11T02:39:13;2.60;;;0.90;;
70312;SDS011;57723;51.698;5.344;2023-03-11T02:41:39;1.17;;;0.60;;
70312;SDS011;57723;51.698;5.344;2023-03-11T02:44:07;1.83;;;0.55;;
70312;SDS011;57723;51.698;5.344;2023-03-11T02:46:34;1.53;;;0.57;;
70312;SDS011;57723;51.698;5.344;2023-03-11T02:49:00;1.48;;;0.50;;
70312;SDS011;57723;51.698;5.344;2023-03-11T02:51:26;1.63;;;0.43;;
70312;SDS011;57723;51.698;5.344;2023-03-11T02:53:52;1.95;;;0.60;;
70312;SDS011;57723;51.698;5.344;2023-03-11T02:56:21;0.88;;;0.40;;
70312;SDS011;57723;51.698;5.344;2023-03-11T02:58:46;1.90;;;0.60;;
70312;SDS011;57723;51.698;5.344;2023-03-11T03:01:12;0.75;;;0.40;;
70312;SDS011;57723;51.698;5.344;2023-03-11T03:03:37;0.70;;;0.50;;
70312;SDS011;57723;51.698;5.344;2023-03-11T03:06:03;1.10;;;0.50;;
70312;SDS011;57723;51.698;5.344;2023-03-11T03:08:28;1.43;;;0.60;;
70312;SDS011;57723;51.698;5.344;2023-03-11T03:10:53;1.25;;;0.50;;
70312;SDS011;57723;51.698;5.344;2023-03-11T03:13:19;0.68;;;0.40;;
70312;SDS011;57723;51.698;5.344;2023-03-11T03:15:44;1.52;;;0.60;;
70312;SDS011;57723;51.698;5.344;2023-03-11T03:18:09;1.08;;;0.63;;
70312;SDS011;57723;51.698;5.344;2023-03-11T03:20:35;0.97;;;0.40;;
70312;SDS011;57723;51.698;5.344;2023-03-11T03:23:09;1.37;;;0.60;;
70312;SDS011;57723;51.698;5.344;2023-03-11T03:25:34;0.73;;;0.43;;
70312;SDS011;57723;51.698;5.344;2023-03-11T03:28:00;1.67;;;0.60;;
70312;SDS011;57723;51.698;5.344;2023-03-11T03:30:25;0.77;;;0.40;;
70312;SDS011;57723;51.698;5.344;2023-03-11T03:32:53;1.45;;;0.43;;
70312;SDS011;57723;51.698;5.344;2023-03-11T03:35:21;0.60;;;0.40;;
70312;SDS011;57723;51.698;5.344;2023-03-11T03:37:47;0.82;;;0.40;;
70312;SDS011;57723;51.698;5.344;2023-03-11T03:40:12;1.20;;;0.53;;
70312;SDS011;57723;51.698;5.344;2023-03-11T03:42:38;0.67;;;0.50;;
70312;SDS011;57723;51.698;5.344;2023-03-11T03:45:04;0.50;;;0.50;;
70312;SDS011;57723;51.698;5.344;2023-03-11T03:47:30;2.25;;;0.80;;
70312;SDS011;57723;51.698;5.344;2023-03-11T03:49:56;1.45;;;0.30;;
70312;SDS011;57723;51.698;5.344;2023-03-11T03:52:21;0.50;;;0.50;;
70312;SDS011;57723;51.698;5.344;2023-03-11T03:54:46;1.30;;;0.60;;
70312;SDS011;57723;51.698;5.344;2023-03-11T03:57:12;0.77;;;0.47;;
70312;SDS011;57723;51.698;5.344;2023-03-11T03:59:37;0.53;;;0.50;;
70312;SDS011;57723;51.698;5.344;2023-03-11T04:02:03;0.80;;;0.50;;
70312;SDS011;57723;51.698;5.344;2023-03-11T04:04:31;0.90;;;0.50;;
70312;SDS011;57723;51.698;5.344;2023-03-11T04:06:57;0.95;;;0.50;;
70312;SDS011;57723;51.698;5.344;2023-03-11T04:09:22;0.70;;;0.40;;
70312;SDS011;57723;51.698;5.344;2023-03-11T04:11:48;2.80;;;0.60;;
70312;SDS011;57723;51.698;5.344;2023-03-11T04:14:14;1.87;;;0.50;;
70312;SDS011;57723;51.698;5.344;2023-03-11T04:16:42;0.65;;;0.40;;
70312;SDS011;57723;51.698;5.344;2023-03-11T04:19:07;1.40;;;0.40;;
70312;SDS011;57723;51.698;5.344;2023-03-11T04:21:33;1.60;;;0.45;;
70312;SDS011;57723;51.698;5.344;2023-03-11T04:23:59;1.10;;;0.50;;
70312;SDS011;57723;51.698;5.344;2023-03-11T04:26:24;1.03;;;0.60;;
70312;SDS011;57723;51.698;5.344;2023-03-11T04:28:49;0.77;;;0.40;;
70312;SDS011;57723;51.698;5.344;2023-03-11T04:31:15;0.80;;;0.40;;
70312;SDS011;57723;51.698;5.344;2023-03-11T04:33:40;2.45;;;0.63;;
70312;SDS011;57723;51.698;5.344;2023-03-11T04:36:11;0.40;;;0.40;;
70312;SDS011;57723;51.698;5.344;2023-03-11T04:38:36;0.68;;;0.40;;
70312;SDS011;57723;51.698;5.344;2023-03-11T04:41:02;0.82;;;0.40;;
70312;SDS011;57723;51.698;5.344;2023-03-11T04:43:28;1.35;;;0.50;;
70312;SDS011;57723;51.698;5.344;2023-03-11T04:45:54;2.35;;;0.60;;
70312;SDS011;57723;51.698;5.344;2023-03-11T04:48:22;0.40;;;0.40;;
70312;SDS011;57723;51.698;5.344;2023-03-11T04:50:48;1.88;;;0.60;;
70312;SDS011;57723;51.698;5.344;2023-03-11T04:53:14;0.73;;;0.50;;
70312;SDS011;57723;51.698;5.344;2023-03-11T04:55:39;0.60;;;0.40;;
70312;SDS011;57723;51.698;5.344;2023-03-11T04:58:05;0.65;;;0.40;;
70312;SDS011;57723;51.698;5.344;2023-03-11T05:00:30;1.15;;;0.50;;
70312;SDS011;57723;51.698;5.344;2023-03-11T05:02:56;0.60;;;0.45;;
70312;SDS011;57723;51.698;5.344;2023-03-11T05:05:21;0.80;;;0.47;;
70312;SDS011;57723;51.698;5.344;2023-03-11T05:07:47;0.97;;;0.40;;
70312;SDS011;57723;51.698;5.344;2023-03-11T05:10:13;1.02;;;0.40;;
70312;SDS011;57723;51.698;5.344;2023-03-11T05:12:41;1.13;;;0.40;;
70312;SDS011;57723;51.698;5.344;2023-03-11T05:15:06;1.38;;;0.60;;
70312;SDS011;57723;51.698;5.344;2023-03-11T05:17:32;1.47;;;0.50;;
70312;SDS011;57723;51.698;5.344;2023-03-11T05:19:57;0.50;;;0.40;;
70312;SDS011;57723;51.698;5.344;2023-03-11T05:22:23;1.17;;;0.57;;
70312;SDS011;57723;51.698;5.344;2023-03-11T05:24:48;1.15;;;0.50;;
70312;SDS011;57723;51.698;5.344;2023-03-11T05:27:14;1.13;;;0.50;;
70312;SDS011;57723;51.698;5.344;2023-03-11T05:29:42;1.63;;;0.50;;
70312;SDS011;57723;51.698;5.344;2023-03-11T05:32:09;1.05;;;0.52;;
70312;SDS011;57723;51.698;5.344;2023-03-11T05:34:34;0.50;;;0.40;;
70312;SDS011;57723;51.698;5.344;2023-03-11T05:36:59;0.60;;;0.33;;
70312;SDS011;57723;51.698;5.344;2023-03-11T05:39:25;2.17;;;0.65;;
70312;SDS011;57723;51.698;5.344;2023-03-11T05:41:51;0.87;;;0.50;;
70312;SDS011;57723;51.698;5.344;2023-03-11T05:44:16;1.63;;;0.40;;
70312;SDS011;57723;51.698;5.344;2023-03-11T05:46:42;1.08;;;0.50;;
70312;SDS011;57723;51.698;5.344;2023-03-11T05:49:07;0.88;;;0.43;;
70312;SDS011;57723;51.698;5.344;2023-03-11T05:51:32;2.20;;;0.30;;
70312;SDS011;57723;51.698;5.344;2023-03-11T05:53:59;0.57;;;0.40;;
70312;SDS011;57723;51.698;5.344;2023-03-11T05:56:24;0.73;;;0.40;;
70312;SDS011;57723;51.698;5.344;2023-03-11T05:58:49;0.87;;;0.40;;
70312;SDS011;57723;51.698;5.344;2023-03-11T06:01:15;1.03;;;0.70;;
70312;SDS011;57723;51.698;5.344;2023-03-11T06:03:41;1.17;;;0.50;;
70312;SDS011;57723;51.698;5.344;2023-03-11T06:06:08;0.70;;;0.40;;
70312;SDS011;57723;51.698;5.344;2023-03-11T06:08:34;1.05;;;0.32;;
70312;SDS011;57723;51.698;5.344;2023-03-11T06:11:04;1.02;;;0.40;;
70312;SDS011;57723;51.698;5.344;2023-03-11T06:13:30;1.02;;;0.40;;
70312;SDS011;57723;51.698;5.344;2023-03-11T06:15:55;1.33;;;0.50;;
70312;SDS011;57723;51.698;5.344;2023-03-11T06:18:21;0.82;;;0.40;;
70312;SDS011;57723;51.698;5.344;2023-03-11T06:20:47;1.73;;;0.40;;
70312;SDS011;57723;51.698;5.344;2023-03-11T06:23:12;5.75;;;0.60;;
70312;SDS011;57723;51.698;5.344;2023-03-11T06:25:37;1.85;;;0.43;;
70312;SDS011;57723;51.698;5.344;2023-03-11T06:28:03;0.88;;;0.40;;
70312;SDS011;57723;51.698;5.344;2023-03-11T06:30:28;0.80;;;0.40;;
70312;SDS011;57723;51.698;5.344;2023-03-11T06:32:53;0.83;;;0.30;;
70312;SDS011;57723;51.698;5.344;2023-03-11T06:35:19;4.23;;;0.50;;
70312;SDS011;57723;51.698;5.344;2023-03-11T06:37:45;2.85;;;0.55;;
70312;SDS011;57723;51.698;5.344;2023-03-11T06:40:10;0.77;;;0.47;;
70312;SDS011;57723;51.698;5.344;2023-03-11T06:42:36;2.33;;;0.55;;
70312;SDS011;57723;51.698;5.344;2023-03-11T06:45:01;0.60;;;0.30;;
70312;SDS011;57723;51.698;5.344;2023-03-11T06:47:27;0.90;;;0.40;;
70312;SDS011;57723;51.698;5.344;2023-03-11T06:49:52;0.83;;;0.40;;
70312;SDS011;57723;51.698;5.344;2023-03-11T06:52:17;1.13;;;0.43;;
70312;SDS011;57723;51.698;5.344;2023-03-11T06:54:43;1.60;;;0.90;;
70312;SDS011;57723;51.698;5.344;2023-03-11T06:57:08;1.58;;;0.47;;
70312;SDS011;57723;51.698;5.344;2023-03-11T06:59:34;1.57;;;0.60;;
70312;SDS011;57723;51.698;5.344;2023-03-11T07:02:00;0.80;;;0.40;;
70312;SDS011;57723;51.698;5.344;2023-03-11T07:04:25;2.60;;;0.47;;
70312;SDS011;57723;51.698;5.344;2023-03-11T07:06:50;9.10;;;0.77;;
70312;SDS011;57723;51.698;5.344;2023-03-11T07:09:16;16.80;;;1.73;;
70312;SDS011;57723;51.698;5.344;2023-03-11T07:11:41;11.23;;;0.87;;
70312;SDS011;57723;51.698;5.344;2023-03-11T07:14:07;1.73;;;0.60;;
70312;SDS011;57723;51.698;5.344;2023-03-11T07:16:33;3.13;;;0.67;;
70312;SDS011;57723;51.698;5.344;2023-03-11T07:18:59;5.20;;;0.50;;
70312;SDS011;57723;51.698;5.344;2023-03-11T07:21:27;8.57;;;0.50;;
70312;SDS011;57723;51.698;5.344;2023-03-11T07:23:53;6.57;;;0.60;;
70312;SDS011;57723;51.698;5.344;2023-03-11T07:26:18;1.73;;;0.43;;
70312;SDS011;57723;51.698;5.344;2023-03-11T07:28:44;2.63;;;0.70;;
70312;SDS011;57723;51.698;5.344;2023-03-11T07:31:11;1.63;;;0.65;;
70312;SDS011;57723;51.698;5.344;2023-03-11T07:33:36;1.57;;;0.43;;
70312;SDS011;57723;51.698;5.344;2023-03-11T07:36:08;1.42;;;0.40;;
70312;SDS011;57723;51.698;5.344;2023-03-11T07:38:37;2.53;;;0.55;;
70312;SDS011;57723;51.698;5.344;2023-03-11T07:41:03;2.58;;;0.50;;
70312;SDS011;57723;51.698;5.344;2023-03-11T07:43:29;5.50;;;0.63;;
70312;SDS011;57723;51.698;5.344;2023-03-11T07:46:13;0.70;;;0.40;;
70312;SDS011;57723;51.698;5.344;2023-03-11T07:48:40;1.10;;;0.30;;
70312;SDS011;57723;51.698;5.344;2023-03-11T07:51:10;1.20;;;0.43;;
70312;SDS011;57723;51.698;5.344;2023-03-11T07:53:35;2.87;;;0.40;;
70312;SDS011;57723;51.698;5.344;2023-03-11T07:56:00;0.87;;;0.40;;
70312;SDS011;57723;51.698;5.344;2023-03-11T07:58:26;3.80;;;0.40;;
70312;SDS011;57723;51.698;5.344;2023-03-11T08:00:51;0.80;;;0.43;;
70312;SDS011;57723;51.698;5.344;2023-03-11T08:03:16;1.93;;;0.33;;
70312;SDS011;57723;51.698;5.344;2023-03-11T08:05:42;2.80;;;0.47;;
70312;SDS011;57723;51.698;5.344;2023-03-11T08:08:08;1.75;;;0.30;;
70312;SDS011;57723;51.698;5.344;2023-03-11T08:10:35;1.07;;;0.40;;
70312;SDS011;57723;51.698;5.344;2023-03-11T08:13:00;1.77;;;0.40;;
70312;SDS011;57723;51.698;5.344;2023-03-11T08:15:25;1.57;;;0.40;;
70312;SDS011;57723;51.698;5.344;2023-03-11T08:17:51;2.67;;;0.50;;
70312;SDS011;57723;51.698;5.344;2023-03-11T08:20:16;0.80;;;0.47;;
70312;SDS011;57723;51.698;5.344;2023-03-11T08:22:41;1.40;;;0.20;;
70312;SDS011;57723;51.698;5.344;2023-03-11T08:25:07;0.93;;;0.30;;
70312;SDS011;57723;51.698;5.344;2023-03-11T08:27:32;1.20;;;1.00;;
70312;SDS011;57723;51.698;5.344;2023-03-11T08:29:57;3.27;;;0.67;;
70312;SDS011;57723;51.698;5.344;2023-03-11T08:32:23;1.35;;;0.40;;
70312;SDS011;57723;51.698;5.344;2023-03-11T08:34:48;1.37;;;0.47;;
70312;SDS011;57723;51.698;5.344;2023-03-11T08:37:13;1.50;;;0.50;;
70312;SDS011;57723;51.698;5.344;2023-03-11T08:39:38;2.57;;;0.57;;
70312;SDS011;57723;51.698;5.344;2023-03-11T08:42:04;0.73;;;0.40;;
70312;SDS011;57723;51.698;5.344;2023-03-11T08:44:29;0.77;;;0.47;;
70312;SDS011;57723;51.698;5.344;2023-03-11T08:46:54;2.13;;;0.60;;
70312;SDS011;57723;51.698;5.344;2023-03-11T08:49:20;1.50;;;0.50;;
70312;SDS011;57723;51.698;5.344;2023-03-11T08:51:45;0.90;;;0.57;;
70312;SDS011;57723;51.698;5.344;2023-03-11T08:54:10;3.70;;;0.63;;
70312;SDS011;57723;51.698;5.344;2023-03-11T08:56:35;0.70;;;0.40;;
70312;SDS011;57723;51.698;5.344;2023-03-11T08:59:01;1.63;;;0.67;;
70312;SDS011;57723;51.698;5.344;2023-03-11T09:01:26;1.30;;;0.60;;
70312;SDS011;57723;51.698;5.344;2023-03-11T09:03:53;2.00;;;0.57;;
70312;SDS011;57723;51.698;5.344;2023-03-11T09:06:18;4.67;;;0.70;;
70312;SDS011;57723;51.698;5.344;2023-03-11T09:08:44;1.73;;;0.70;;
70312;SDS011;57723;51.698;5.344;2023-03-11T09:11:10;1.80;;;0.68;;
70312;SDS011;57723;51.698;5.344;2023-03-11T09:13:37;3.30;;;0.90;;
70312;SDS011;57723;51.698;5.344;2023-03-11T09:16:05;1.98;;;0.60;;
70312;SDS011;57723;51.698;5.344;2023-03-11T09:18:30;2.27;;;0.60;;
70312;SDS011;57723;51.698;5.344;2023-03-11T09:20:55;2.33;;;0.70;;
70312;SDS011;57723;51.698;5.344;2023-03-11T09:23:22;3.88;;;0.68;;
70312;SDS011;57723;51.698;5.344;2023-03-11T09:25:48;1.20;;;0.68;;
70312;SDS011;57723;51.698;5.344;2023-03-11T09:28:13;1.47;;;0.80;;
70312;SDS011;57723;51.698;5.344;2023-03-11T09:30:39;2.67;;;0.70;;
70312;SDS011;57723;51.698;5.344;2023-03-11T09:33:04;2.63;;;0.90;;
70312;SDS011;57723;51.698;5.344;2023-03-11T09:35:29;2.83;;;1.60;;
70312;SDS011;57723;51.698;5.344;2023-03-11T09:37:55;5.90;;;1.33;;
70312;SDS011;57723;51.698;5.344;2023-03-11T09:40:21;5.80;;;1.85;;
70312;SDS011;57723;51.698;5.344;2023-03-11T09:45:32;2.87;;;1.17;;
70312;SDS011;57723;51.698;5.344;2023-03-11T09:50:42;3.93;;;1.00;;
70312;SDS011;57723;51.698;5.344;2023-03-11T09:53:11;7.57;;;1.08;;
70312;SDS011;57723;51.698;5.344;2023-03-11T09:55:44;2.95;;;1.10;;
70312;SDS011;57723;51.698;5.344;2023-03-11T09:58:33;4.80;;;1.13;;
70312;SDS011;57723;51.698;5.344;2023-03-11T10:00:59;3.87;;;0.90;;
70312;SDS011;57723;51.698;5.344;2023-03-11T10:03:28;2.77;;;1.00;;
70312;SDS011;57723;51.698;5.344;2023-03-11T10:06:18;3.95;;;0.98;;
70312;SDS011;57723;51.698;5.344;2023-03-11T10:09:00;4.75;;;1.23;;
70312;SDS011;57723;51.698;5.344;2023-03-11T10:11:41;2.08;;;0.80;;
70312;SDS011;57723;51.698;5.344;2023-03-11T10:16:40;3.37;;;1.00;;
70312;SDS011;57723;51.698;5.344;2023-03-11T10:19:14;3.47;;;1.00;;
70312;SDS011;57723;51.698;5.344;2023-03-11T10:24:18;3.28;;;1.02;;
70312;SDS011;57723;51.698;5.344;2023-03-11T10:26:53;2.40;;;0.73;;
70312;SDS011;57723;51.698;5.344;2023-03-11T10:29:22;4.18;;;1.00;;
70312;SDS011;57723;51.698;5.344;2023-03-11T10:32:33;4.40;;;1.00;;
70312;SDS011;57723;51.698;5.344;2023-03-11T10:34:43;3.83;;;0.90;;
70312;SDS011;57723;51.698;5.344;2023-03-11T10:39:46;2.30;;;0.90;;
70312;SDS011;57723;51.698;5.344;2023-03-11T10:42:13;2.22;;;0.63;;
70312;SDS011;57723;51.698;5.344;2023-03-11T10:44:41;4.07;;;0.93;;
70312;SDS011;57723;51.698;5.344;2023-03-11T10:47:11;2.75;;;0.80;;
70312;SDS011;57723;51.698;5.344;2023-03-11T10:49:38;1.88;;;1.10;;
70312;SDS011;57723;51.698;5.344;2023-03-11T10:52:03;1.85;;;0.90;;
70312;SDS011;57723;51.698;5.344;2023-03-11T10:54:36;2.70;;;0.83;;
70312;SDS011;57723;51.698;5.344;2023-03-11T10:57:48;1.85;;;0.75;;
70312;SDS011;57723;51.698;5.344;2023-03-11T10:59:53;3.08;;;1.35;;
70312;SDS011;57723;51.698;5.344;2023-03-11T11:05:07;2.70;;;0.85;;
70312;SDS011;57723;51.698;5.344;2023-03-11T11:07:48;1.70;;;0.80;;
70312;SDS011;57723;51.698;5.344;2023-03-11T11:10:18;2.33;;;0.75;;
70312;SDS011;57723;51.698;5.344;2023-03-11T11:15:23;3.10;;;1.17;;
70312;SDS011;57723;51.698;5.344;2023-03-11T11:17:48;3.30;;;1.02;;
70312;SDS011;57723;51.698;5.344;2023-03-11T11:20:15;4.97;;;0.70;;
70312;SDS011;57723;51.698;5.344;2023-03-11T11:22:50;3.10;;;1.00;;
70312;SDS011;57723;51.698;5.344;2023-03-11T11:25:25;1.38;;;0.80;;
70312;SDS011;57723;51.698;5.344;2023-03-11T11:27:54;1.38;;;0.80;;
70312;SDS011;57723;51.698;5.344;2023-03-11T11:30:28;2.63;;;1.08;;
70312;SDS011;57723;51.698;5.344;2023-03-11T11:32:53;2.60;;;1.00;;
70312;SDS011;57723;51.698;5.344;2023-03-11T11:35:20;2.78;;;0.98;;
70312;SDS011;57723;51.698;5.344;2023-03-11T11:37:50;2.90;;;0.70;;
70312;SDS011;57723;51.698;5.344;2023-03-11T11:42:49;1.92;;;0.80;;
70312;SDS011;57723;51.698;5.344;2023-03-11T11:45:20;2.28;;;0.80;;
70312;SDS011;57723;51.698;5.344;2023-03-11T11:47:47;2.40;;;0.90;;
70312;SDS011;57723;51.698;5.344;2023-03-11T11:50:23;2.77;;;1.40;;
70312;SDS011;57723;51.698;5.344;2023-03-11T11:53:00;2.85;;;1.40;;
70312;SDS011;57723;51.698;5.344;2023-03-11T11:55:27;6.57;;;2.00;;
70312;SDS011;57723;51.698;5.344;2023-03-11T11:57:54;4.10;;;1.90;;
70312;SDS011;57723;51.698;5.344;2023-03-11T12:00:23;6.57;;;2.13;;
70312;SDS011;57723;51.698;5.344;2023-03-11T12:05:29;4.47;;;2.33;;
70312;SDS011;57723;51.698;5.344;2023-03-11T12:15:32;5.38;;;2.55;;
70312;SDS011;57723;51.698;5.344;2023-03-11T12:18:02;7.50;;;2.45;;
70312;SDS011;57723;51.698;5.344;2023-03-11T12:20:41;7.20;;;2.90;;
70312;SDS011;57723;51.698;5.344;2023-03-11T12:23:14;6.55;;;2.75;;
70312;SDS011;57723;51.698;5.344;2023-03-11T12:30:40;7.60;;;2.95;;
70312;SDS011;57723;51.698;5.344;2023-03-11T12:33:27;6.88;;;2.67;;
70312;SDS011;57723;51.698;5.344;2023-03-11T12:35:55;9.18;;;3.25;;
70312;SDS011;57723;51.698;5.344;2023-03-11T12:38:29;7.05;;;2.75;;
70312;SDS011;57723;51.698;5.344;2023-03-11T12:40:57;8.25;;;2.85;;
70312;SDS011;57723;51.698;5.344;2023-03-11T12:45:58;9.55;;;3.22;;
70312;SDS011;57723;51.698;5.344;2023-03-11T12:50:49;9.10;;;2.40;;
70312;SDS011;57723;51.698;5.344;2023-03-11T12:53:17;5.80;;;2.17;;
70312;SDS011;57723;51.698;5.344;2023-03-11T12:55:55;7.53;;;1.92;;
70312;SDS011;57723;51.698;5.344;2023-03-11T12:58:31;8.25;;;1.60;;
70312;SDS011;57723;51.698;5.344;2023-03-11T13:03:46;7.70;;;1.75;;
70312;SDS011;57723;51.698;5.344;2023-03-11T13:06:23;7.68;;;1.40;;
70312;SDS011;57723;51.698;5.344;2023-03-11T13:08:53;4.88;;;2.25;;
70312;SDS011;57723;51.698;5.344;2023-03-11T13:16:41;4.78;;;1.35;;
70312;SDS011;57723;51.698;5.344;2023-03-11T13:19:53;6.07;;;2.25;;
70312;SDS011;57723;51.698;5.344;2023-03-11T13:21:53;5.07;;;1.50;;
70312;SDS011;57723;51.698;5.344;2023-03-11T13:34:16;6.68;;;1.27;;
70312;SDS011;57723;51.698;5.344;2023-03-11T13:41:57;3.45;;;1.40;;
70312;SDS011;57723;51.698;5.344;2023-03-11T13:44:26;4.50;;;1.47;;
70312;SDS011;57723;51.698;5.344;2023-03-11T13:46:56;4.00;;;1.30;;
70312;SDS011;57723;51.698;5.344;2023-03-11T13:49:27;3.70;;;1.10;;
70312;SDS011;57723;51.698;5.344;2023-03-11T13:51:55;5.63;;;1.30;;
70312;SDS011;57723;51.698;5.344;2023-03-11T13:54:31;4.50;;;1.20;;
70312;SDS011;57723;51.698;5.344;2023-03-11T13:57:00;3.10;;;1.10;;
70312;SDS011;57723;51.698;5.344;2023-03-11T13:59:27;4.57;;;1.40;;
70312;SDS011;57723;51.698;5.344;2023-03-11T14:01:53;3.00;;;1.00;;
70312;SDS011;57723;51.698;5.344;2023-03-11T14:04:27;6.07;;;1.10;;
70312;SDS011;57723;51.698;5.344;2023-03-11T14:06:52;2.50;;;1.00;;
70312;SDS011;57723;51.698;5.344;2023-03-11T14:09:21;2.40;;;1.10;;
70312;SDS011;57723;51.698;5.344;2023-03-11T14:11:47;3.53;;;1.10;;
70312;SDS011;57723;51.698;5.344;2023-03-11T14:14:26;4.40;;;1.20;;
70312;SDS011;57723;51.698;5.344;2023-03-11T14:16:54;4.17;;;1.03;;
70312;SDS011;57723;51.698;5.344;2023-03-11T14:19:20;5.95;;;1.10;;
70312;SDS011;57723;51.698;5.344;2023-03-11T14:21:46;5.50;;;1.23;;
70312;SDS011;57723;51.698;5.344;2023-03-11T14:24:16;2.83;;;0.93;;
70312;SDS011;57723;51.698;5.344;2023-03-11T14:26:42;3.30;;;0.90;;
70312;SDS011;57723;51.698;5.344;2023-03-11T14:29:10;3.30;;;0.93;;
70312;SDS011;57723;51.698;5.344;2023-03-11T14:31:37;2.40;;;1.00;;
70312;SDS011;57723;51.698;5.344;2023-03-11T14:34:04;3.60;;;1.02;;
70312;SDS011;57723;51.698;5.344;2023-03-11T14:39:20;2.50;;;0.88;;
70312;SDS011;57723;51.698;5.344;2023-03-11T14:41:46;2.67;;;0.90;;
70312;SDS011;57723;51.698;5.344;2023-03-11T14:44:11;2.40;;;0.90;;
70312;SDS011;57723;51.698;5.344;2023-03-11T14:46:38;4.07;;;1.17;;
70312;SDS011;57723;51.698;5.344;2023-03-11T14:49:03;2.47;;;0.85;;
70312;SDS011;57723;51.698;5.344;2023-03-11T14:51:30;3.90;;;1.10;;
70312;SDS011;57723;51.698;5.344;2023-03-11T14:54:16;3.25;;;0.90;;
70312;SDS011;57723;51.698;5.344;2023-03-11T14:56:45;3.03;;;1.00;;
70312;SDS011;57723;51.698;5.344;2023-03-11T14:59:17;3.08;;;0.80;;
70312;SDS011;57723;51.698;5.344;2023-03-11T15:01:46;1.95;;;0.82;;
70312;SDS011;57723;51.698;5.344;2023-03-11T15:04:25;1.80;;;0.82;;
70312;SDS011;57723;51.698;5.344;2023-03-11T15:06:53;2.85;;;0.90;;
70312;SDS011;57723;51.698;5.344;2023-03-11T15:09:19;2.63;;;0.80;;
70312;SDS011;57723;51.698;5.344;2023-03-11T15:11:52;3.78;;;0.90;;
70312;SDS011;57723;51.698;5.344;2023-03-11T15:16:50;2.40;;;0.70;;
70312;SDS011;57723;51.698;5.344;2023-03-11T15:21:54;2.00;;;0.70;;
70312;SDS011;57723;51.698;5.344;2023-03-11T15:24:25;3.55;;;0.95;;
70312;SDS011;57723;51.698;5.344;2023-03-11T15:27:07;3.80;;;0.90;;
70312;SDS011;57723;51.698;5.344;2023-03-11T15:29:45;2.03;;;0.70;;
70312;SDS011;57723;51.698;5.344;2023-03-11T15:37:37;3.30;;;0.90;;
70312;SDS011;57723;51.698;5.344;2023-03-11T15:42:35;1.98;;;0.65;;
70312;SDS011;57723;51.698;5.344;2023-03-11T15:45:02;2.20;;;0.80;;
70312;SDS011;57723;51.698;5.344;2023-03-11T15:47:28;1.58;;;0.80;;
70312;SDS011;57723;51.698;5.344;2023-03-11T15:49:54;2.88;;;0.70;;
70312;SDS011;57723;51.698;5.344;2023-03-11T15:52:19;1.53;;;0.77;;
70312;SDS011;57723;51.698;5.344;2023-03-11T15:54:45;1.40;;;0.63;;
70312;SDS011;57723;51.698;5.344;2023-03-11T15:57:21;2.00;;;0.80;;
70312;SDS011;57723;51.698;5.344;2023-03-11T15:59:48;3.22;;;0.90;;
70312;SDS011;57723;51.698;5.344;2023-03-11T16:02:24;2.55;;;0.80;;
70312;SDS011;57723;51.698;5.344;2023-03-11T16:04:53;2.55;;;0.80;;
70312;SDS011;57723;51.698;5.344;2023-03-11T16:07:19;3.35;;;1.00;;
70312;SDS011;57723;51.698;5.344;2023-03-11T16:09:44;1.30;;;0.70;;
70312;SDS011;57723;51.698;5.344;2023-03-11T16:12:16;2.30;;;0.70;;
70312;SDS011;57723;51.698;5.344;2023-03-11T16:14:42;1.92;;;0.60;;
70312;SDS011;57723;51.698;5.344;2023-03-11T16:17:08;2.03;;;0.80;;
70312;SDS011;57723;51.698;5.344;2023-03-11T16:19:34;1.38;;;0.70;;